Time;durP1;ratioP1;P1;durP2;ratioP2;P2;SDS_P1;SDS_P2;PMS_P1;PMS_P2;Temp;Humidity;BMP_temperature;BMP_pressure;BME280_temperature;BME280_humidity;BME280_pressure;Samples;Min_cycle;Max_cycle;Signal;HPM_P1;HPM_P2
2023/08/17 00:02:12;;;;;;;3.03;2.28;;;23.40;99.90;;;;;;5089297;28;20256;-67
2023/08/17 00:04:39;;;;;;;2.90;2.35;;;23.40;99.90;;;;;;5089037;28;20781;-67
2023/08/17 00:07:07;;;;;;;2.15;1.95;;;23.30;99.90;;;;;;5088783;28;20693;-67
2023/08/17 00:09:34;;;;;;;3.10;2.35;;;23.10;99.90;;;;;;5090554;28;20726;-67
2023/08/17 00:12:03;;;;;;;2.67;2.05;;;23.20;99.90;;;;;;5103820;28;20214;-67
2023/08/17 00:14:31;;;;;;;2.35;2.15;;;23.10;99.90;;;;;;5089120;28;21035;-67
2023/08/17 00:16:58;;;;;;;2.63;2.15;;;23.10;99.90;;;;;;5089136;28;20246;-67
2023/08/17 00:19:25;;;;;;;3.25;2.10;;;23.00;99.90;;;;;;5089101;28;20321;-67
2023/08/17 00:21:53;;;;;;;4.45;2.22;;;23.00;99.90;;;;;;5088826;28;20207;-67
2023/08/17 00:24:20;;;;;;;3.15;2.10;;;22.90;99.90;;;;;;5088906;28;20231;-67
2023/08/17 00:26:47;;;;;;;2.55;2.35;;;23.00;99.90;;;;;;5088972;28;20211;-67
2023/08/17 00:29:17;;;;;;;3.03;2.00;;;22.90;99.90;;;;;;5088546;28;20747;-67
2023/08/17 00:31:44;;;;;;;6.32;2.45;;;22.90;99.90;;;;;;5103705;28;20206;-67
2023/08/17 00:34:11;;;;;;;4.20;2.10;;;23.00;99.90;;;;;;5089382;28;20214;-67
2023/08/17 00:36:38;;;;;;;3.50;2.13;;;23.00;99.90;;;;;;5103907;28;20202;-66
2023/08/17 00:39:09;;;;;;;2.78;2.15;;;22.90;99.90;;;;;;5108527;28;20238;-67
2023/08/17 00:41:36;;;;;;;2.35;2.17;;;23.00;99.90;;;;;;5094738;28;20211;-67
2023/08/17 00:44:03;;;;;;;3.38;2.03;;;23.00;99.90;;;;;;5088766;28;20230;-67
2023/08/17 00:46:37;;;;;;;3.13;2.50;;;22.70;99.90;;;;;;5088622;28;20272;-67
2023/08/17 00:49:05;;;;;;;4.38;2.22;;;22.80;99.90;;;;;;5088646;28;20198;-67
2023/08/17 00:51:33;;;;;;;3.10;2.72;;;22.80;99.90;;;;;;5088214;28;20301;-67
2023/08/17 00:54:02;;;;;;;3.08;2.10;;;22.80;99.90;;;;;;5101461;28;20209;-67
2023/08/17 00:56:29;;;;;;;2.90;2.25;;;22.80;99.90;;;;;;5108828;28;20747;-67
2023/08/17 00:58:57;;;;;;;4.47;2.20;;;22.70;99.90;;;;;;5108871;28;20259;-67
2023/08/17 01:01:25;;;;;;;3.67;2.25;;;22.70;99.90;;;;;;5108443;28;20202;-67
2023/08/17 01:03:54;;;;;;;3.50;2.60;;;22.80;99.90;;;;;;5107272;27;20958;-67
2023/08/17 01:06:21;;;;;;;3.17;2.28;;;22.70;99.90;;;;;;5107377;28;20232;-67
2023/08/17 01:08:48;;;;;;;4.30;2.45;;;22.60;99.90;;;;;;5104221;28;20596;-67
2023/08/17 01:11:25;;;;;;;4.93;2.13;;;22.60;99.90;;;;;;5108070;27;20733;-67
2023/08/17 01:14:01;;;;;;;4.18;2.05;;;22.70;99.90;;;;;;5108490;28;20625;-66
2023/08/17 01:16:31;;;;;;;3.05;2.15;;;22.70;99.90;;;;;;5108242;28;20539;-66
2023/08/17 01:19:02;;;;;;;3.15;2.15;;;22.70;99.90;;;;;;5089928;28;20199;-66
2023/08/17 01:21:38;;;;;;;2.53;2.17;;;22.60;99.90;;;;;;5087812;28;20248;-67
2023/08/17 01:24:07;;;;;;;2.47;2.10;;;22.40;99.90;;;;;;5087249;28;20722;-68
2023/08/17 01:26:35;;;;;;;3.97;2.45;;;22.50;99.90;;;;;;5098066;28;20644;-68
2023/08/17 01:29:02;;;;;;;4.18;2.13;;;22.50;99.90;;;;;;5107335;28;20328;-68
2023/08/17 01:31:36;;;;;;;3.55;2.47;;;22.40;99.90;;;;;;5107661;28;20841;-68
2023/08/17 01:34:08;;;;;;;3.30;2.50;;;22.30;99.90;;;;;;5108073;28;20224;-68
2023/08/17 01:36:39;;;;;;;3.05;2.13;;;22.40;99.90;;;;;;5107685;28;20186;-68
2023/08/17 01:39:09;;;;;;;3.08;2.28;;;22.50;99.90;;;;;;5107844;28;20603;-68
2023/08/17 01:41:37;;;;;;;2.92;2.13;;;22.50;99.90;;;;;;5094126;28;20760;-67
2023/08/17 01:44:05;;;;;;;4.53;2.45;;;22.40;99.90;;;;;;5087446;28;20694;-67
2023/08/17 01:46:33;;;;;;;2.35;2.15;;;22.40;99.90;;;;;;5087401;28;20211;-67
2023/08/17 01:49:01;;;;;;;3.53;2.30;;;22.30;99.90;;;;;;5087670;28;20284;-67
2023/08/17 01:51:28;;;;;;;3.90;2.35;;;22.30;99.90;;;;;;5087518;28;20210;-67
2023/08/17 01:53:54;;;;;;;2.92;2.38;;;22.30;99.90;;;;;;5087469;28;20210;-67
2023/08/17 01:56:23;;;;;;;2.58;2.38;;;22.30;99.90;;;;;;5087527;28;20238;-67
2023/08/17 01:58:49;;;;;;;2.30;1.90;;;22.30;99.90;;;;;;5087318;28;20299;-67
2023/08/17 02:01:16;;;;;;;3.95;2.20;;;22.30;99.90;;;;;;5103744;28;20233;-67
2023/08/17 02:03:43;;;;;;;3.13;2.33;;;22.20;99.90;;;;;;5107326;28;20198;-67
2023/08/17 02:06:10;;;;;;;6.20;2.10;;;22.10;99.90;;;;;;5107185;28;20657;-66
2023/08/17 02:08:38;;;;;;;4.13;2.53;;;22.00;99.90;;;;;;5107310;28;20733;-67
2023/08/17 02:11:05;;;;;;;4.43;2.42;;;21.90;99.90;;;;;;5106513;27;20678;-66
2023/08/17 02:13:33;;;;;;;4.80;2.67;;;22.00;99.90;;;;;;5099217;28;20198;-66
2023/08/17 02:16:00;;;;;;;4.07;2.20;;;22.00;99.90;;;;;;5101526;28;20294;-68
2023/08/17 02:18:30;;;;;;;3.17;2.58;;;22.10;99.90;;;;;;5085367;28;20737;-66
2023/08/17 02:20:57;;;;;;;4.45;2.33;;;22.10;99.90;;;;;;5086978;28;20581;-66
2023/08/17 02:23:24;;;;;;;3.40;2.60;;;22.10;99.90;;;;;;5094923;28;20286;-66
2023/08/17 02:25:51;;;;;;;2.40;2.13;;;22.00;99.90;;;;;;5086509;28;20784;-66
2023/08/17 02:28:18;;;;;;;2.95;2.60;;;22.10;99.90;;;;;;5086834;28;20771;-66
2023/08/17 02:30:47;;;;;;;4.20;2.38;;;22.20;99.90;;;;;;5086761;28;20203;-66
2023/08/17 02:33:14;;;;;;;2.95;2.08;;;22.10;99.90;;;;;;5100912;28;20210;-66
2023/08/17 02:35:41;;;;;;;3.53;2.38;;;22.10;99.90;;;;;;5105117;28;20240;-67
2023/08/17 02:38:08;;;;;;;4.13;2.30;;;22.00;99.90;;;;;;5104826;28;20333;-66
2023/08/17 02:40:35;;;;;;;4.63;2.35;;;22.10;99.90;;;;;;5110644;27;20317;-70
2023/08/17 02:43:01;;;;;;;6.55;2.45;;;22.00;99.90;;;;;;5125937;27;20233;-66
2023/08/17 02:45:28;;;;;;;3.08;2.33;;;22.00;99.90;;;;;;5116512;27;20312;-66
2023/08/17 02:47:56;;;;;;;3.67;2.40;;;21.80;99.90;;;;;;5088842;28;20202;-66
2023/08/17 02:50:23;;;;;;;3.95;2.35;;;21.80;99.90;;;;;;5084863;28;20214;-66
2023/08/17 02:52:50;;;;;;;3.10;2.42;;;21.80;99.90;;;;;;5084931;28;20254;-66
2023/08/17 02:55:17;;;;;;;2.45;2.08;;;21.80;99.90;;;;;;5084464;28;20302;-66
2023/08/17 02:57:44;;;;;;;3.08;2.17;;;21.80;99.90;;;;;;5087004;28;20215;-66
2023/08/17 03:00:12;;;;;;;2.97;2.22;;;21.80;99.90;;;;;;5101520;28;20544;-67
2023/08/17 03:02:39;;;;;;;3.97;2.50;;;21.70;99.90;;;;;;5104654;28;20263;-66
2023/08/17 03:05:08;;;;;;;3.88;2.10;;;21.80;99.90;;;;;;5097636;28;20262;-66
2023/08/17 03:07:35;;;;;;;6.20;2.40;;;21.70;99.90;;;;;;5084182;28;20292;-66
2023/08/17 03:10:02;;;;;;;3.47;2.40;;;21.70;99.90;;;;;;5098029;28;20630;-66
2023/08/17 03:12:28;;;;;;;3.67;2.03;;;21.70;99.90;;;;;;5105374;28;20194;-67
2023/08/17 03:14:55;;;;;;;3.35;2.38;;;21.60;99.90;;;;;;5105854;28;20216;-66
2023/08/17 03:17:22;;;;;;;4.22;2.70;;;21.60;99.90;;;;;;5106021;28;20302;-66
2023/08/17 03:19:49;;;;;;;4.00;2.40;;;21.60;99.90;;;;;;5106111;28;20245;-66
2023/08/17 03:22:17;;;;;;;3.00;2.38;;;21.60;99.90;;;;;;5105651;28;20206;-66
2023/08/17 03:24:44;;;;;;;3.30;2.15;;;21.60;99.90;;;;;;5105960;28;20252;-66
2023/08/17 03:27:11;;;;;;;4.10;2.20;;;21.50;99.90;;;;;;5105994;28;20212;-66
2023/08/17 03:29:38;;;;;;;3.00;2.63;;;21.40;99.90;;;;;;5101813;28;20199;-66
2023/08/17 03:32:05;;;;;;;4.53;2.30;;;21.50;99.90;;;;;;5085547;28;20211;-66
2023/08/17 03:34:32;;;;;;;5.10;2.42;;;21.50;99.90;;;;;;5085363;28;20238;-66
2023/08/17 03:36:59;;;;;;;5.43;2.35;;;21.40;99.90;;;;;;5085173;28;20207;-66
2023/08/17 03:39:28;;;;;;;4.18;2.60;;;21.40;99.90;;;;;;5085409;28;20430;-66
2023/08/17 03:41:55;;;;;;;3.70;1.98;;;21.40;99.90;;;;;;5102196;28;20296;-66
2023/08/17 03:44:22;;;;;;;3.47;2.40;;;21.50;99.90;;;;;;5105863;28;20271;-66
2023/08/17 03:46:49;;;;;;;3.10;2.22;;;21.40;99.90;;;;;;5105880;28;20202;-66
2023/08/17 03:49:16;;;;;;;6.50;2.03;;;21.40;99.90;;;;;;5105398;28;20301;-66
2023/08/17 03:51:43;;;;;;;3.63;2.10;;;21.30;99.90;;;;;;5105829;28;20300;-66
2023/08/17 03:54:10;;;;;;;3.17;2.15;;;21.30;99.90;;;;;;5085237;28;20565;-66
2023/08/17 03:56:38;;;;;;;2.42;2.20;;;21.40;99.90;;;;;;5085025;28;20351;-67
2023/08/17 03:59:05;;;;;;;2.75;1.90;;;21.40;99.90;;;;;;5085064;28;20620;-66
2023/08/17 04:01:32;;;;;;;3.40;2.55;;;21.50;99.90;;;;;;5085591;28;20297;-66
2023/08/17 04:03:59;;;;;;;3.22;1.92;;;21.50;99.90;;;;;;5085276;28;20293;-67
2023/08/17 04:06:25;;;;;;;3.28;1.83;;;21.50;99.90;;;;;;5085417;28;20292;-66
2023/08/17 04:08:52;;;;;;;4.07;2.30;;;21.60;99.90;;;;;;5085318;28;20299;-66
2023/08/17 04:11:19;;;;;;;2.80;2.60;;;21.50;99.90;;;;;;5096513;28;20249;-66
2023/08/17 04:13:47;;;;;;;2.38;2.17;;;21.40;99.90;;;;;;5105439;28;20290;-66
2023/08/17 04:16:14;;;;;;;2.22;2.05;;;21.40;99.90;;;;;;5105121;28;20217;-67
2023/08/17 04:18:41;;;;;;;2.50;2.30;;;21.30;99.90;;;;;;5105295;28;20212;-66
2023/08/17 04:21:08;;;;;;;3.38;2.40;;;21.30;99.90;;;;;;5105242;28;20209;-66
2023/08/17 04:23:35;;;;;;;2.67;2.05;;;21.40;99.90;;;;;;5105131;28;20317;-67
2023/08/17 04:26:02;;;;;;;2.90;2.20;;;21.40;99.90;;;;;;5105043;28;20751;-66
2023/08/17 04:28:28;;;;;;;4.43;2.50;;;21.30;99.90;;;;;;5105033;28;20310;-66
2023/08/17 04:30:57;;;;;;;19.88;3.05;;;21.40;99.90;;;;;;5090596;28;20205;-66
2023/08/17 04:33:24;;;;;;;8.75;2.67;;;21.30;99.90;;;;;;5084696;28;20237;-66
2023/08/17 04:35:50;;;;;;;3.03;1.90;;;21.20;99.90;;;;;;5085076;28;20206;-66
2023/08/17 04:38:17;;;;;;;2.40;2.07;;;21.30;99.90;;;;;;5084161;28;20274;-66
2023/08/17 04:40:44;;;;;;;5.45;2.50;;;21.30;99.90;;;;;;5099005;27;20220;-66
2023/08/17 04:43:12;;;;;;;5.75;2.40;;;21.30;99.90;;;;;;5129549;27;20201;-66
2023/08/17 04:45:38;;;;;;;3.88;2.70;;;21.40;99.90;;;;;;5129445;27;20235;-66
2023/08/17 04:48:07;;;;;;;3.03;2.10;;;21.40;99.90;;;;;;5128519;27;20723;-66
2023/08/17 04:50:34;;;;;;;2.75;2.30;;;21.40;99.90;;;;;;5108595;28;20559;-66
2023/08/17 04:53:01;;;;;;;4.47;2.40;;;21.40;99.90;;;;;;5108275;28;20208;-66
2023/08/17 04:55:28;;;;;;;2.95;2.30;;;21.40;99.90;;;;;;5108696;28;20210;-66
2023/08/17 04:57:55;;;;;;;3.80;2.30;;;21.40;99.90;;;;;;5108873;27;20233;-66
2023/08/17 05:00:27;;;;;;;4.63;2.40;;;21.50;99.90;;;;;;5109018;28;20639;-66
2023/08/17 05:02:54;;;;;;;3.17;2.17;;;21.50;99.90;;;;;;5108775;28;20226;-66
2023/08/17 05:05:23;;;;;;;2.08;1.95;;;21.50;99.90;;;;;;5108163;28;20233;-66
2023/08/17 05:07:50;;;;;;;19.33;2.40;;;21.50;99.90;;;;;;5108345;28;20758;-66
2023/08/17 05:10:17;;;;;;;7.97;2.92;;;21.40;99.90;;;;;;5096396;28;20254;-66
2023/08/17 05:12:43;;;;;;;4.25;2.28;;;21.50;99.90;;;;;;5108435;28;20210;-66
2023/08/17 05:15:10;;;;;;;5.68;2.50;;;21.50;99.90;;;;;;5108306;28;20288;-66
2023/08/17 05:17:37;;;;;;;3.80;2.35;;;21.60;99.90;;;;;;5108283;28;20285;-66
2023/08/17 05:20:08;;;;;;;3.67;2.33;;;21.60;99.90;;;;;;5107768;28;20206;-66
2023/08/17 05:22:36;;;;;;;2.80;2.13;;;21.60;99.90;;;;;;5107931;28;20209;-66
2023/08/17 05:25:03;;;;;;;2.22;2.03;;;21.70;99.90;;;;;;5107739;28;20233;-66
2023/08/17 05:27:30;;;;;;;2.80;2.15;;;21.50;99.90;;;;;;5107747;28;20206;-66
2023/08/17 05:29:57;;;;;;;3.90;2.30;;;21.50;99.90;;;;;;5107902;28;20205;-66
2023/08/17 05:32:24;;;;;;;3.55;2.22;;;21.50;99.90;;;;;;5107649;28;20212;-66
2023/08/17 05:34:51;;;;;;;3.92;2.50;;;21.50;99.90;;;;;;5107491;28;20332;-66
2023/08/17 05:37:18;;;;;;;4.85;2.00;;;21.50;99.90;;;;;;5107274;27;20244;-66
2023/08/17 05:39:46;;;;;;;4.45;2.47;;;21.60;99.90;;;;;;5108165;28;20214;-66
2023/08/17 05:42:13;;;;;;;2.85;2.42;;;21.60;99.90;;;;;;5088196;28;20222;-66
2023/08/17 05:44:39;;;;;;;6.03;2.50;;;21.60;99.90;;;;;;5087124;27;20245;-66
2023/08/17 05:47:06;;;;;;;4.53;2.28;;;21.60;99.90;;;;;;5086710;28;20718;-67
2023/08/17 05:49:33;;;;;;;3.95;2.15;;;21.70;99.90;;;;;;5112611;27;21051;-66
2023/08/17 05:52:00;;;;;;;4.40;2.00;;;21.60;99.90;;;;;;5127703;27;20216;-67
2023/08/17 05:54:27;;;;;;;3.33;2.08;;;21.40;99.90;;;;;;5127701;27;20324;-66
2023/08/17 05:56:55;;;;;;;5.10;2.28;;;21.20;99.90;;;;;;5128307;27;20206;-65
2023/08/17 05:59:22;;;;;;;5.32;2.33;;;21.00;99.90;;;;;;5127621;27;20206;-66
2023/08/17 06:01:49;;;;;;;3.67;2.00;;;21.00;99.90;;;;;;5127472;27;20664;-65
2023/08/17 06:04:16;;;;;;;6.15;2.38;;;20.90;99.90;;;;;;5127511;27;20838;-66
2023/08/17 06:06:43;;;;;;;4.97;2.10;;;21.00;99.90;;;;;;5127417;27;20233;-65
2023/08/17 06:09:09;;;;;;;2.78;1.90;;;20.80;99.90;;;;;;5127939;27;20252;-65
2023/08/17 06:11:36;;;;;;;4.10;2.10;;;20.80;99.90;;;;;;5113368;27;20218;-65
2023/08/17 06:14:05;;;;;;;4.65;2.13;;;20.90;99.90;;;;;;5107019;28;20202;-65
2023/08/17 06:16:32;;;;;;;2.35;2.15;;;21.00;99.90;;;;;;5106992;28;20210;-65
2023/08/17 06:18:59;;;;;;;4.07;2.15;;;21.00;99.90;;;;;;5106994;28;20702;-66
2023/08/17 06:21:26;;;;;;;4.53;2.58;;;21.20;99.90;;;;;;5106431;28;20731;-65
2023/08/17 06:23:53;;;;;;;2.58;2.35;;;21.40;99.90;;;;;;5106720;28;20213;-66
2023/08/17 06:26:20;;;;;;;2.95;1.80;;;21.60;99.90;;;;;;5106580;28;20251;-65
2023/08/17 06:28:47;;;;;;;2.47;2.28;;;21.70;99.90;;;;;;5106682;28;20317;-65
2023/08/17 06:31:17;;;;;;;6.43;2.25;;;21.80;99.90;;;;;;5106249;28;20256;-66
2023/08/17 06:33:44;;;;;;;2.65;2.28;;;21.90;99.90;;;;;;5106651;28;20283;-66
2023/08/17 06:36:13;;;;;;;3.25;2.40;;;21.90;99.90;;;;;;5106674;28;20321;-66
2023/08/17 06:38:39;;;;;;;2.25;2.05;;;22.00;99.90;;;;;;5106083;28;20225;-65
2023/08/17 06:41:06;;;;;;;3.60;1.80;;;22.10;99.90;;;;;;5101610;28;20627;-65
2023/08/17 06:43:33;;;;;;;2.80;2.20;;;22.20;99.90;;;;;;5085887;28;20242;-66
2023/08/17 06:46:01;;;;;;;3.25;2.17;;;22.20;99.90;;;;;;5086738;28;20235;-66
2023/08/17 06:48:31;;;;;;;3.58;2.20;;;22.30;99.90;;;;;;5085641;28;20749;-66
2023/08/17 06:50:58;;;;;;;3.33;2.20;;;22.30;99.90;;;;;;5086246;28;20203;-65
2023/08/17 06:53:24;;;;;;;2.80;2.30;;;22.30;99.90;;;;;;5085983;28;20211;-66
2023/08/17 06:55:51;;;;;;;5.10;3.40;;;22.40;99.90;;;;;;5086050;28;20661;-66
2023/08/17 06:58:18;;;;;;;2.78;2.55;;;22.40;99.90;;;;;;5085763;28;20882;-66
2023/08/17 07:00:45;;;;;;;4.95;2.30;;;22.40;99.90;;;;;;5085912;28;20202;-66
2023/08/17 07:03:12;;;;;;;3.88;2.70;;;22.30;99.90;;;;;;5085368;28;20217;-66
2023/08/17 07:05:40;;;;;;;5.30;2.40;;;22.30;99.90;;;;;;5085565;28;20230;-65
2023/08/17 07:08:07;;;;;;;3.20;2.35;;;22.20;99.90;;;;;;5086117;28;20207;-66
2023/08/17 07:10:34;;;;;;;2.83;2.58;;;22.10;99.90;;;;;;5091181;28;20571;-66
2023/08/17 07:13:03;;;;;;;4.10;2.47;;;22.10;99.90;;;;;;5106578;28;20210;-66
2023/08/17 07:15:30;;;;;;;5.05;2.95;;;22.10;99.90;;;;;;5105948;28;20202;-66
2023/08/17 07:17:56;;;;;;;5.05;2.85;;;22.00;99.90;;;;;;5106196;28;20218;-66
2023/08/17 07:20:23;;;;;;;6.03;3.25;;;22.00;99.90;;;;;;5106133;28;20209;-66
2023/08/17 07:22:52;;;;;;;3.00;2.67;;;22.00;99.90;;;;;;5105727;28;20216;-66
2023/08/17 07:25:19;;;;;;;7.25;3.05;;;21.70;99.90;;;;;;5105596;28;20208;-66
2023/08/17 07:27:46;;;;;;;5.60;3.05;;;21.50;99.90;;;;;;5105436;28;20206;-65
2023/08/17 07:30:13;;;;;;;5.05;2.75;;;21.60;99.90;;;;;;5105501;28;20241;-65
2023/08/17 07:32:40;;;;;;;4.40;3.00;;;21.70;99.90;;;;;;5105785;28;20255;-65
2023/08/17 07:35:08;;;;;;;6.45;3.65;;;21.70;99.90;;;;;;5105415;28;20247;-66
2023/08/17 07:37:35;;;;;;;6.30;2.97;;;21.80;99.90;;;;;;5098668;28;20319;-65
2023/08/17 07:40:04;;;;;;;3.13;2.90;;;21.70;99.90;;;;;;5086487;28;20286;-66
2023/08/17 07:42:31;;;;;;;2.70;2.50;;;21.70;99.90;;;;;;5105773;28;20245;-66
2023/08/17 07:44:58;;;;;;;4.85;3.20;;;21.80;99.90;;;;;;5111335;28;20201;-66
2023/08/17 07:47:25;;;;;;;7.50;3.70;;;21.80;99.90;;;;;;5125414;28;20225;-65
2023/08/17 07:49:52;;;;;;;11.00;4.40;;;21.90;99.90;;;;;;5125989;28;20581;-65
2023/08/17 07:52:19;;;;;;;8.50;4.43;;;21.90;99.90;;;;;;5125770;28;20205;-65
2023/08/17 07:54:46;;;;;;;6.03;3.72;;;21.90;99.90;;;;;;5126215;28;20324;-65
2023/08/17 07:57:15;;;;;;;6.32;3.72;;;21.90;99.90;;;;;;5125882;28;20201;-66
2023/08/17 07:59:42;;;;;;;3.88;3.58;;;21.90;99.90;;;;;;5126139;28;20308;-65
2023/08/17 08:02:08;;;;;;;5.57;3.17;;;21.90;99.90;;;;;;5125969;28;20284;-66
2023/08/17 08:04:35;;;;;;;4.53;3.10;;;21.90;99.90;;;;;;5125896;28;20260;-65
2023/08/17 08:07:02;;;;;;;3.20;2.90;;;21.90;99.90;;;;;;5125426;28;20333;-65
2023/08/17 08:09:29;;;;;;;5.45;3.33;;;22.00;99.90;;;;;;5125269;28;20236;-66
2023/08/17 08:11:56;;;;;;;3.58;3.22;;;22.10;99.90;;;;;;5108863;28;20868;-65
2023/08/17 08:14:24;;;;;;;4.65;3.08;;;22.20;99.90;;;;;;5105315;28;20209;-66
2023/08/17 08:16:52;;;;;;;5.38;3.53;;;22.30;99.90;;;;;;5109405;28;20289;-65
2023/08/17 08:19:18;;;;;;;7.75;3.53;;;22.40;99.90;;;;;;5109138;28;20630;-66
2023/08/17 08:21:45;;;;;;;5.18;3.50;;;22.50;99.90;;;;;;5108994;28;20210;-66
2023/08/17 08:24:12;;;;;;;5.10;3.25;;;22.60;99.90;;;;;;5108817;28;20293;-66
2023/08/17 08:26:39;;;;;;;7.45;3.60;;;22.60;99.90;;;;;;5109120;28;20234;-66
2023/08/17 08:29:06;;;;;;;3.60;3.28;;;22.70;99.90;;;;;;5109030;28;20238;-66
2023/08/17 08:31:34;;;;;;;3.42;2.95;;;22.80;99.90;;;;;;5108740;28;20742;-66
2023/08/17 08:34:01;;;;;;;5.28;2.95;;;22.80;99.90;;;;;;5108369;28;20288;-66
2023/08/17 08:36:28;;;;;;;6.65;3.45;;;22.80;99.90;;;;;;5108667;28;20297;-65
2023/08/17 08:38:55;;;;;;;5.68;3.20;;;22.80;99.90;;;;;;5108484;28;20329;-66
2023/08/17 08:41:23;;;;;;;3.15;2.80;;;22.80;99.90;;;;;;5108762;28;20203;-66
2023/08/17 08:43:50;;;;;;;4.25;2.70;;;22.80;99.90;;;;;;5109031;28;20713;-65
2023/08/17 08:46:18;;;;;;;4.05;2.92;;;22.70;99.90;;;;;;5108540;28;20230;-66
2023/08/17 08:48:50;;;;;;;3.20;2.90;;;22.60;99.90;;;;;;5108610;28;20206;-66
2023/08/17 08:51:21;;;;;;;3.10;2.80;;;22.50;99.90;;;;;;5108118;28;20990;-65
2023/08/17 08:53:55;;;;;;;5.05;3.05;;;22.50;99.90;;;;;;5108677;28;20190;-65
2023/08/17 08:56:25;;;;;;;3.05;2.75;;;22.50;99.90;;;;;;5108266;28;20194;-66
2023/08/17 08:58:53;;;;;;;4.57;3.17;;;22.50;99.90;;;;;;5108387;28;20242;-65
2023/08/17 09:01:21;;;;;;;3.63;3.03;;;22.60;99.90;;;;;;5108106;28;20236;-66
2023/08/17 09:03:50;;;;;;;3.85;2.75;;;22.60;99.90;;;;;;5108084;28;20221;-66
2023/08/17 09:06:17;;;;;;;4.07;3.10;;;22.70;99.90;;;;;;5108260;28;20240;-65
2023/08/17 09:08:46;;;;;;;3.58;2.70;;;22.80;99.90;;;;;;5107509;28;20213;-66
2023/08/17 09:11:12;;;;;;;3.20;2.90;;;22.80;99.90;;;;;;5107718;27;20216;-66
2023/08/17 09:13:39;;;;;;;3.13;2.83;;;22.90;99.90;;;;;;5107930;28;20206;-66
2023/08/17 09:16:06;;;;;;;4.75;2.97;;;22.90;99.90;;;;;;5108468;28;20206;-66
2023/08/17 09:18:33;;;;;;;3.30;3.08;;;23.00;99.90;;;;;;5107841;28;20235;-66
2023/08/17 09:21:02;;;;;;;5.25;3.10;;;23.10;99.90;;;;;;5107706;28;20651;-65
2023/08/17 09:23:29;;;;;;;3.72;3.33;;;23.20;99.90;;;;;;5107854;28;20230;-66
2023/08/17 09:25:57;;;;;;;3.28;3.05;;;23.30;99.90;;;;;;5107917;28;20218;-66
2023/08/17 09:28:25;;;;;;;3.60;3.30;;;23.40;99.90;;;;;;5107458;28;20210;-66
2023/08/17 09:30:54;;;;;;;4.53;3.70;;;23.30;99.90;;;;;;5094107;28;21152;-65
2023/08/17 09:33:22;;;;;;;7.32;3.20;;;23.30;99.90;;;;;;5087172;28;20584;-66
2023/08/17 09:35:49;;;;;;;4.60;3.42;;;23.40;99.90;;;;;;5087383;28;20202;-65
2023/08/17 09:38:18;;;;;;;3.33;3.03;;;23.50;99.90;;;;;;5086979;28;20285;-66
2023/08/17 09:40:45;;;;;;;4.63;3.28;;;23.60;99.90;;;;;;5094282;27;20300;-66
2023/08/17 09:43:13;;;;;;;3.65;3.10;;;23.60;99.90;;;;;;5107459;28;20255;-66
2023/08/17 09:45:40;;;;;;;3.35;3.05;;;23.60;99.90;;;;;;5107674;28;20293;-65
2023/08/17 09:48:08;;;;;;;3.65;3.35;;;23.50;99.90;;;;;;5107886;28;20319;-66
2023/08/17 09:50:35;;;;;;;4.05;3.05;;;23.40;99.90;;;;;;5107812;28;20217;-66
2023/08/17 09:53:03;;;;;;;8.18;3.45;;;23.40;99.90;;;;;;5107767;28;20573;-66
2023/08/17 09:55:33;;;;;;;3.88;3.50;;;23.40;99.90;;;;;;5107374;28;20206;-66
2023/08/17 09:58:00;;;;;;;5.18;3.85;;;23.40;99.90;;;;;;5107069;28;20220;-66
2023/08/17 10:00:28;;;;;;;3.60;3.30;;;23.40;99.90;;;;;;5107227;28;20317;-66
2023/08/17 10:02:58;;;;;;;4.63;3.60;;;23.50;99.90;;;;;;5107541;28;20202;-66
2023/08/17 10:05:28;;;;;;;3.38;3.17;;;23.60;99.90;;;;;;5107076;28;20312;-66
2023/08/17 10:07:58;;;;;;;3.88;3.50;;;23.80;99.90;;;;;;5107005;28;20226;-66
2023/08/17 10:10:27;;;;;;;5.10;3.60;;;23.90;99.90;;;;;;5107140;28;20210;-66
2023/08/17 10:13:07;;;;;;;3.67;3.05;;;24.00;99.90;;;;;;5106993;28;20245;-66
2023/08/17 10:15:38;;;;;;;3.17;2.97;;;24.00;99.90;;;;;;5107466;28;20196;-66
2023/08/17 10:18:14;;;;;;;4.47;3.63;;;24.10;99.90;;;;;;5107458;28;20210;-65
2023/08/17 10:20:43;;;;;;;3.92;3.38;;;24.20;99.90;;;;;;5107043;28;20277;-65
2023/08/17 10:23:15;;;;;;;5.65;3.40;;;24.30;99.90;;;;;;5106381;28;20202;-66
2023/08/17 10:25:43;;;;;;;3.58;3.25;;;24.30;99.90;;;;;;5105572;28;20190;-65
2023/08/17 10:28:12;;;;;;;5.00;3.60;;;24.40;99.90;;;;;;5086467;28;20330;-66
2023/08/17 10:30:40;;;;;;;3.38;2.80;;;24.60;99.90;;;;;;5097969;28;20230;-65
2023/08/17 10:33:08;;;;;;;3.15;2.95;;;24.80;99.90;;;;;;5106472;28;20210;-66
2023/08/17 10:35:36;;;;;;;3.75;3.08;;;25.00;99.90;;;;;;5106304;28;20254;-66
2023/08/17 10:38:05;;;;;;;3.33;2.97;;;25.20;99.90;;;;;;5105333;28;20238;-66
2023/08/17 10:40:38;;;;;;;3.35;3.00;;;25.50;99.90;;;;;;5101123;28;20319;-66
2023/08/17 10:43:05;;;;;;;4.57;2.90;;;25.60;99.90;;;;;;5086298;28;20199;-66
2023/08/17 10:45:38;;;;;;;3.70;3.05;;;25.80;99.90;;;;;;5086288;28;20264;-66
2023/08/17 10:48:28;;;;;;;3.25;2.97;;;26.00;99.90;;;;;;5086586;28;20219;-66
2023/08/17 10:51:03;;;;;;;4.20;3.00;;;26.20;99.90;;;;;;5085988;28;20649;-66
2023/08/17 10:53:38;;;;;;;6.22;3.30;;;26.10;99.90;;;;;;5085946;28;20299;-66
2023/08/17 10:56:08;;;;;;;3.53;3.13;;;26.40;99.90;;;;;;5086111;28;20194;-66
2023/08/17 10:58:35;;;;;;;3.50;3.22;;;26.30;99.90;;;;;;5085562;28;20683;-66
2023/08/17 11:01:04;;;;;;;3.40;3.13;;;26.30;99.90;;;;;;5085810;28;20209;-66
2023/08/17 11:03:31;;;;;;;2.90;2.70;;;26.30;99.90;;;;;;5085634;28;20210;-66
2023/08/17 11:05:58;;;;;;;3.03;2.75;;;26.40;99.90;;;;;;5085763;28;20227;-66
2023/08/17 11:08:32;;;;;;;3.47;3.22;;;26.40;99.90;;;;;;5085300;28;20227;-66
2023/08/17 11:11:05;;;;;;;4.22;3.10;;;26.50;99.90;;;;;;5094673;28;20266;-66
2023/08/17 11:13:34;;;;;;;3.47;3.10;;;26.60;99.90;;;;;;5106183;28;20290;-66
2023/08/17 11:16:03;;;;;;;3.40;3.20;;;26.60;99.90;;;;;;5105858;28;20639;-66
2023/08/17 11:18:30;;;;;;;3.17;2.97;;;26.80;99.90;;;;;;5106459;28;20210;-66
2023/08/17 11:20:58;;;;;;;3.22;3.03;;;26.80;99.90;;;;;;5105757;28;20735;-66
2023/08/17 11:23:25;;;;;;;4.72;3.28;;;26.80;99.90;;;;;;5098111;28;20214;-66
2023/08/17 11:25:54;;;;;;;4.20;3.28;;;26.80;99.90;;;;;;5105674;28;20631;-66
2023/08/17 11:28:22;;;;;;;3.92;3.00;;;26.90;99.90;;;;;;5105396;28;20234;-66
2023/08/17 11:30:57;;;;;;;4.72;3.35;;;27.10;99.90;;;;;;5092545;28;20246;-66
2023/08/17 11:33:26;;;;;;;5.18;3.17;;;27.20;99.90;;;;;;5085534;28;21215;-67
2023/08/17 11:35:55;;;;;;;3.47;3.20;;;27.30;99.90;;;;;;5085117;28;20217;-67
2023/08/17 11:38:22;;;;;;;3.97;3.50;;;27.40;99.90;;;;;;5084691;28;20230;-66
2023/08/17 11:40:49;;;;;;;5.00;3.33;;;27.50;99.90;;;;;;5092671;28;20297;-67
2023/08/17 11:43:16;;;;;;;3.90;3.38;;;27.40;99.90;;;;;;5105325;28;20212;-66
2023/08/17 11:45:43;;;;;;;9.02;3.53;;;27.40;99.90;;;;;;5105593;28;20278;-66
2023/08/17 11:48:10;;;;;;;5.32;3.42;;;27.40;99.90;;;;;;5105405;28;20607;-67
2023/08/17 11:50:39;;;;;;;3.55;3.35;;;27.40;99.90;;;;;;5105181;28;20303;-66
2023/08/17 11:53:06;;;;;;;4.55;3.50;;;27.50;99.90;;;;;;5105579;28;20288;-67
2023/08/17 11:55:33;;;;;;;3.33;3.13;;;27.60;99.90;;;;;;5105797;28;20217;-67
2023/08/17 11:58:00;;;;;;;3.25;3.05;;;27.60;99.90;;;;;;5105883;28;20297;-66
2023/08/17 12:00:26;;;;;;;3.60;3.22;;;27.60;99.90;;;;;;5105568;28;20213;-66
2023/08/17 12:02:55;;;;;;;5.72;3.22;;;27.50;99.90;;;;;;5105654;28;20305;-67
2023/08/17 12:05:23;;;;;;;4.55;3.00;;;27.60;99.90;;;;;;5105401;28;20226;-67
2023/08/17 12:07:53;;;;;;;4.30;3.05;;;27.80;99.90;;;;;;5105282;28;20317;-66
2023/08/17 12:10:22;;;;;;;3.25;3.03;;;28.00;99.90;;;;;;5105279;28;20285;-67
2023/08/17 12:12:49;;;;;;;4.22;3.40;;;28.30;99.90;;;;;;5105173;28;20266;-66
2023/08/17 12:15:17;;;;;;;3.28;3.10;;;28.50;99.90;;;;;;5105118;28;20198;-67
2023/08/17 12:17:47;;;;;;;3.67;3.38;;;28.70;99.90;;;;;;5105169;28;20702;-67
2023/08/17 12:20:18;;;;;;;3.20;3.00;;;28.80;99.90;;;;;;5105252;28;20210;-67
2023/08/17 12:22:45;;;;;;;5.13;3.50;;;28.90;99.90;;;;;;5105355;28;20605;-67
2023/08/17 12:25:14;;;;;;;3.83;3.28;;;28.90;99.90;;;;;;5104898;28;20210;-68
2023/08/17 12:27:41;;;;;;;3.50;3.20;;;28.80;99.90;;;;;;5104980;28;20312;-66
2023/08/17 12:30:24;;;;;;;3.85;3.20;;;28.80;99.90;;;;;;5097545;28;20732;-66
2023/08/17 12:32:51;;;;;;;3.72;3.40;;;28.70;99.90;;;;;;5085189;28;20290;-67
2023/08/17 12:35:21;;;;;;;3.58;3.33;;;28.70;99.90;;;;;;5084981;28;20215;-66
2023/08/17 12:37:48;;;;;;;3.70;3.40;;;28.70;99.90;;;;;;5084558;28;20242;-67
2023/08/17 12:40:16;;;;;;;3.85;3.55;;;28.90;99.90;;;;;;5087555;28;20415;-67
2023/08/17 12:42:43;;;;;;;3.70;3.40;;;29.20;99.90;;;;;;5104893;28;20297;-67
2023/08/17 12:45:10;;;;;;;4.10;3.80;;;29.40;99.90;;;;;;5101025;28;20902;-66
2023/08/17 12:47:38;;;;;;;4.00;3.17;;;29.60;99.90;;;;;;5089826;28;20326;-67
2023/08/17 12:50:05;;;;;;;3.47;3.17;;;29.60;99.90;;;;;;5094847;28;20657;-67